Time;durP1;ratioP1;P1;durP2;ratioP2;P2;SDS_P1;SDS_P2;PMS_P1;PMS_P2;Temp;Humidity;BMP_temperature;BMP_pressure;BME280_temperature;BME280_humidity;BME280_pressure;Samples;Min_cycle;Max_cycle;Signal;HPM_P1;HPM_P2
2022/07/28 00:01:18;;;;;;;5.00;1.25;;;15.90;58.70;;;;;;9192364;19;20014;-65
2022/07/28 00:04:26;;;;;;;5.43;1.40;;;15.90;58.20;;;;;;9192745;19;20023;-65
2022/07/28 00:07:31;;;;;;;5.25;1.75;;;15.80;58.20;;;;;;9194338;19;20006;-66
2022/07/28 00:10:36;;;;;;;5.80;1.50;;;15.80;58.20;;;;;;9188323;19;20044;-65
2022/07/28 00:13:41;;;;;;;6.88;1.70;;;15.70;58.30;;;;;;9194714;19;20085;-65
2022/07/28 00:16:46;;;;;;;5.57;1.85;;;15.70;58.40;;;;;;9192199;19;20011;-65
2022/07/28 00:19:54;;;;;;;4.70;1.67;;;15.70;58.50;;;;;;9191941;19;20396;-66
2022/07/28 00:22:59;;;;;;;5.60;1.70;;;15.60;58.50;;;;;;9191242;19;20019;-66
2022/07/28 00:26:04;;;;;;;6.68;2.85;;;15.60;58.60;;;;;;9187398;19;20010;-65
2022/07/28 00:29:09;;;;;;;7.40;1.42;;;15.50;58.60;;;;;;9184958;19;20022;-65
2022/07/28 00:32:15;;;;;;;5.43;1.92;;;15.50;58.70;;;;;;9185658;19;20113;-66
2022/07/28 00:35:22;;;;;;;4.65;1.60;;;15.50;58.80;;;;;;9184332;19;20014;-65
2022/07/28 00:38:36;;;;;;;3.25;1.67;;;15.40;58.80;;;;;;9183749;19;20018;-64
2022/07/28 00:41:44;;;;;;;6.63;1.75;;;15.40;58.80;;;;;;9180834;19;20014;-65
2022/07/28 00:44:50;;;;;;;5.65;1.85;;;15.40;58.90;;;;;;9183670;19;20010;-65
2022/07/28 00:47:55;;;;;;;3.33;1.33;;;15.30;59.00;;;;;;9184789;19;20028;-65
2022/07/28 00:51:03;;;;;;;3.38;1.70;;;15.30;59.10;;;;;;9184202;19;20007;-65
2022/07/28 00:54:08;;;;;;;9.90;1.67;;;15.30;59.20;;;;;;9182615;19;20020;-64
2022/07/28 00:57:14;;;;;;;9.18;1.95;;;15.30;59.30;;;;;;9176463;19;20492;-64
2022/07/28 01:00:19;;;;;;;6.78;1.63;;;15.20;59.30;;;;;;9179258;19;20011;-64
2022/07/28 01:03:25;;;;;;;2.63;1.63;;;15.10;59.40;;;;;;9178612;19;20735;-64
2022/07/28 01:06:50;;;;;;;4.20;1.80;;;15.10;59.40;;;;;;9180591;19;20349;-64
2022/07/28 01:10:07;;;;;;;4.43;1.55;;;15.10;59.70;;;;;;9174691;19;20022;-64
2022/07/28 01:13:21;;;;;;;5.25;1.50;;;15.10;59.70;;;;;;9178814;19;20018;-64
2022/07/28 01:16:27;;;;;;;6.57;1.85;;;15.00;59.60;;;;;;9179081;19;20015;-64
2022/07/28 01:19:40;;;;;;;4.32;1.73;;;15.00;59.60;;;;;;9177467;19;20082;-65
2022/07/28 01:23:14;;;;;;;5.47;1.35;;;15.00;59.80;;;;;;9179229;19;20375;-65
2022/07/28 01:26:41;;;;;;;5.03;1.55;;;14.90;60.00;;;;;;9178339;19;20036;-65
2022/07/28 01:30:04;;;;;;;7.38;1.95;;;15.00;60.00;;;;;;9177858;19;20044;-65
2022/07/28 01:33:18;;;;;;;7.75;2.03;;;14.90;60.00;;;;;;9178908;19;20018;-65
2022/07/28 01:36:37;;;;;;;7.85;1.77;;;14.90;60.00;;;;;;9176035;19;20018;-64
2022/07/28 01:39:47;;;;;;;5.47;1.70;;;14.90;59.90;;;;;;9177732;19;20517;-65
2022/07/28 01:42:57;;;;;;;4.30;2.30;;;14.90;60.00;;;;;;9176085;19;20159;-66
2022/07/28 01:46:04;;;;;;;4.35;1.60;;;14.80;60.00;;;;;;9178030;19;20007;-65
2022/07/28 01:49:12;;;;;;;5.07;1.92;;;14.80;60.10;;;;;;9176175;19;20031;-64
2022/07/28 01:52:20;;;;;;;2.67;1.95;;;14.80;60.20;;;;;;9178231;19;20022;-65
2022/07/28 01:55:27;;;;;;;3.95;1.90;;;14.70;60.20;;;;;;9176339;19;20090;-65
2022/07/28 01:58:34;;;;;;;5.07;2.20;;;14.80;60.30;;;;;;9176439;19;20018;-65
2022/07/28 02:01:43;;;;;;;5.88;1.88;;;14.70;60.40;;;;;;9174143;19;20082;-65
2022/07/28 02:04:52;;;;;;;11.25;2.42;;;14.70;60.50;;;;;;9174093;19;20048;-65
2022/07/28 02:07:59;;;;;;;8.48;2.15;;;14.70;60.60;;;;;;9175023;19;20023;-65
2022/07/28 02:14:24;;;;;;;5.53;1.90;;;14.70;60.60;;;;;;9175795;19;20014;-65
2022/07/28 02:17:33;;;;;;;6.35;2.25;;;14.60;60.60;;;;;;9174938;19;20022;-65
2022/07/28 02:20:41;;;;;;;7.90;2.08;;;14.60;60.70;;;;;;9175637;19;20037;-65
2022/07/28 02:23:49;;;;;;;5.20;1.88;;;14.60;60.80;;;;;;9174891;19;20019;-64
2022/07/28 02:27:00;;;;;;;5.75;2.85;;;14.60;60.80;;;;;;9175572;19;20829;-65
2022/07/28 02:30:09;;;;;;;15.63;2.28;;;14.50;60.90;;;;;;9174499;19;20041;-65
2022/07/28 02:33:18;;;;;;;7.75;2.35;;;14.50;61.30;;;;;;9176505;19;20078;-65
2022/07/28 02:36:57;;;;;;;5.43;2.28;;;14.40;60.90;;;;;;9173891;19;20874;-65
2022/07/28 02:40:04;;;;;;;5.20;2.05;;;14.40;61.00;;;;;;9175247;19;20022;-65
2022/07/28 02:43:14;;;;;;;6.63;2.47;;;14.40;61.00;;;;;;9173783;19;20022;-65
2022/07/28 02:46:23;;;;;;;5.72;2.53;;;14.40;61.10;;;;;;9175898;19;20029;-65
2022/07/28 02:49:32;;;;;;;7.25;3.60;;;14.30;61.10;;;;;;9173857;19;20029;-67
2022/07/28 02:52:41;;;;;;;6.18;2.28;;;14.30;61.10;;;;;;9174011;19;21053;-65
2022/07/28 02:55:48;;;;;;;4.88;1.83;;;14.30;61.20;;;;;;9174917;19;20014;-66
2022/07/28 02:58:55;;;;;;;5.85;2.20;;;14.20;61.20;;;;;;9175897;19;20536;-65
2022/07/28 03:02:01;;;;;;;3.70;2.20;;;14.20;61.30;;;;;;9174154;19;20782;-65
2022/07/28 03:05:08;;;;;;;6.18;2.40;;;14.20;61.40;;;;;;9174568;19;20761;-64
2022/07/28 03:08:18;;;;;;;7.03;2.63;;;14.20;61.50;;;;;;9172986;19;20446;-64
2022/07/28 03:11:23;;;;;;;4.82;2.22;;;14.10;61.50;;;;;;9167379;19;20021;-64
2022/07/28 03:14:28;;;;;;;4.80;2.00;;;14.10;61.50;;;;;;9172187;19;20017;-64
2022/07/28 03:17:33;;;;;;;8.20;2.83;;;14.10;61.60;;;;;;9174140;19;20019;-65
2022/07/28 03:20:39;;;;;;;6.00;2.50;;;14.00;61.60;;;;;;9172591;19;20019;-64
2022/07/28 03:23:49;;;;;;;10.10;2.97;;;14.00;61.70;;;;;;9174004;19;20037;-65
2022/07/28 03:27:02;;;;;;;5.72;2.75;;;14.00;61.90;;;;;;9173706;19;20022;-64
2022/07/28 03:30:11;;;;;;;5.90;2.50;;;14.00;61.90;;;;;;9173177;19;20021;-66
2022/07/28 03:33:17;;;;;;;6.35;2.70;;;13.90;61.90;;;;;;9174042;19;20014;-64
2022/07/28 03:36:30;;;;;;;12.77;2.60;;;13.90;61.90;;;;;;9172819;19;20019;-65
2022/07/28 03:39:45;;;;;;;3.80;2.50;;;13.80;62.00;;;;;;9172625;19;20027;-65
2022/07/28 03:42:52;;;;;;;6.65;2.45;;;13.80;62.10;;;;;;9169296;19;20022;-66
2022/07/28 03:45:57;;;;;;;3.85;2.75;;;13.80;62.10;;;;;;9172942;19;20022;-65
2022/07/28 03:49:09;;;;;;;6.13;2.53;;;13.80;62.70;;;;;;9171384;19;20022;-64
2022/07/28 03:52:14;;;;;;;5.50;2.63;;;13.80;62.30;;;;;;9171659;19;20364;-64
2022/07/28 03:55:22;;;;;;;6.57;2.65;;;13.70;62.30;;;;;;9172642;19;20038;-65
2022/07/28 03:58:29;;;;;;;10.57;2.92;;;13.70;62.40;;;;;;9170770;19;20018;-65
2022/07/28 04:01:34;;;;;;;11.68;2.65;;;13.70;62.40;;;;;;9175851;19;20022;-65
2022/07/28 04:04:40;;;;;;;4.63;2.63;;;13.60;62.40;;;;;;9178700;19;20434;-64
2022/07/28 04:07:46;;;;;;;5.45;2.95;;;13.60;62.50;;;;;;9178178;19;20029;-64
2022/07/28 04:10:53;;;;;;;6.97;2.80;;;13.60;62.50;;;;;;9177977;19;20029;-64
2022/07/28 04:13:58;;;;;;;8.02;2.50;;;13.60;62.60;;;;;;9181409;19;20015;-64
2022/07/28 04:17:03;;;;;;;5.10;2.47;;;13.50;62.60;;;;;;9179404;19;20022;-66
2022/07/28 04:20:10;;;;;;;6.72;2.70;;;13.50;62.60;;;;;;9178770;19;20025;-64
2022/07/28 04:23:14;;;;;;;7.97;2.85;;;13.50;62.70;;;;;;9178232;19;20038;-64
2022/07/28 04:26:22;;;;;;;8.13;2.60;;;13.50;62.80;;;;;;9179723;19;20021;-64
2022/07/28 04:29:27;;;;;;;7.32;2.92;;;13.50;62.90;;;;;;9181340;19;20026;-64
2022/07/28 04:32:32;;;;;;;10.20;3.15;;;13.40;62.90;;;;;;9182238;19;20018;-64
2022/07/28 04:35:37;;;;;;;6.90;2.70;;;13.40;63.00;;;;;;9180456;19;20019;-65
2022/07/28 04:38:42;;;;;;;9.45;2.70;;;13.40;63.00;;;;;;9181172;19;20039;-62
2022/07/28 04:41:51;;;;;;;3.78;2.92;;;13.40;63.10;;;;;;9180010;19;20022;-63
2022/07/28 04:44:56;;;;;;;6.50;2.80;;;13.40;63.20;;;;;;9178688;19;20361;-65
2022/07/28 04:48:01;;;;;;;7.32;2.60;;;13.40;63.20;;;;;;9178798;19;20025;-66
2022/07/28 04:51:07;;;;;;;6.18;2.70;;;13.50;63.30;;;;;;9179958;19;21823;-65
2022/07/28 04:54:12;;;;;;;7.32;3.10;;;13.40;63.30;;;;;;9178786;19;20483;-66
2022/07/28 04:57:22;;;;;;;13.02;2.95;;;13.40;63.40;;;;;;9180003;19;20014;-63
2022/07/28 05:00:29;;;;;;;6.95;2.88;;;13.40;63.50;;;;;;9179332;19;20022;-64
2022/07/28 05:03:34;;;;;;;6.72;2.72;;;13.40;63.50;;;;;;9175099;19;20018;-64
2022/07/28 05:06:40;;;;;;;13.02;2.50;;;13.50;63.60;;;;;;9178850;19;20022;-62
2022/07/28 05:09:45;;;;;;;5.13;2.65;;;13.50;63.60;;;;;;9173925;19;20038;-65
2022/07/28 05:12:53;;;;;;;6.57;2.83;;;13.50;63.80;;;;;;9179659;19;21617;-64
2022/07/28 05:15:58;;;;;;;4.95;2.25;;;13.50;63.80;;;;;;9178292;19;20023;-65
2022/07/28 05:19:04;;;;;;;11.95;2.95;;;13.50;63.80;;;;;;9179544;19;20026;-65
2022/07/28 05:22:09;;;;;;;5.68;2.78;;;13.60;63.90;;;;;;9177921;19;20023;-65
2022/07/28 05:25:19;;;;;;;8.23;3.05;;;13.60;64.00;;;;;;9176998;19;20026;-64
2022/07/28 05:28:27;;;;;;;5.07;2.78;;;13.60;64.10;;;;;;9176780;19;20490;-66
2022/07/28 05:31:32;;;;;;;9.93;3.30;;;13.60;64.20;;;;;;9180533;19;20021;-65
2022/07/28 05:34:40;;;;;;;10.43;2.75;;;13.60;64.20;;;;;;9175613;19;20065;-64
2022/07/28 05:37:45;;;;;;;5.78;2.70;;;13.70;64.30;;;;;;9179257;19;20368;-64
2022/07/28 05:40:50;;;;;;;7.78;3.80;;;13.80;64.50;;;;;;9179280;19;20847;-66
2022/07/28 05:44:00;;;;;;;4.10;2.25;;;13.80;64.60;;;;;;9174555;19;20023;-65
2022/07/28 05:47:05;;;;;;;10.60;2.35;;;13.90;64.70;;;;;;9177803;19;20014;-65
2022/07/28 05:50:11;;;;;;;9.13;2.28;;;14.00;64.80;;;;;;9182476;19;20015;-64
2022/07/28 05:53:16;;;;;;;9.13;2.60;;;14.20;64.90;;;;;;9181941;19;20018;-65
2022/07/28 05:56:21;;;;;;;7.65;2.38;;;14.30;65.00;;;;;;9180442;19;20011;-66
2022/07/28 05:59:29;;;;;;;7.55;2.03;;;14.40;65.00;;;;;;9180495;19;20436;-65
2022/07/28 06:02:34;;;;;;;10.27;2.22;;;14.60;65.10;;;;;;9178936;19;20019;-65
2022/07/28 06:05:39;;;;;;;6.78;2.25;;;14.70;64.90;;;;;;9178582;19;20014;-65
2022/07/28 06:09:05;;;;;;;4.82;1.80;;;14.90;64.90;;;;;;9180938;19;20022;-66
2022/07/28 06:12:10;;;;;;;10.52;1.80;;;15.00;64.70;;;;;;9181115;19;20029;-65
2022/07/28 06:15:20;;;;;;;9.38;1.92;;;15.10;64.70;;;;;;9178479;19;20037;-64
2022/07/28 06:18:25;;;;;;;7.95;1.75;;;15.20;64.80;;;;;;9170150;19;20010;-64
2022/07/28 06:21:31;;;;;;;8.43;2.15;;;15.40;64.70;;;;;;9172177;19;20510;-64
2022/07/28 06:24:37;;;;;;;6.72;1.80;;;15.50;64.70;;;;;;9171346;19;20602;-63
2022/07/28 06:27:42;;;;;;;5.30;1.40;;;15.70;64.70;;;;;;9177382;19;20025;-64
2022/07/28 06:30:50;;;;;;;7.57;1.50;;;15.90;64.60;;;;;;9176193;19;20018;-63
2022/07/28 06:33:55;;;;;;;7.18;1.23;;;16.00;64.40;;;;;;9174165;19;20018;-65
2022/07/28 06:37:00;;;;;;;2.47;1.38;;;16.20;64.40;;;;;;9177017;19;20026;-64
2022/07/28 06:40:06;;;;;;;5.03;1.25;;;16.30;64.20;;;;;;9175473;19;20026;-64
2022/07/28 06:43:13;;;;;;;9.93;1.52;;;16.50;64.10;;;;;;9174667;19;20008;-64
2022/07/28 06:46:21;;;;;;;3.45;1.27;;;16.70;64.00;;;;;;9174528;19;20038;-63
2022/07/28 06:49:26;;;;;;;3.42;0.90;;;16.90;63.80;;;;;;9176419;19;20014;-64
2022/07/28 06:52:32;;;;;;;2.35;0.93;;;17.10;63.60;;;;;;9174444;19;20026;-63
2022/07/28 06:55:37;;;;;;;4.45;1.15;;;17.30;63.40;;;;;;9175365;19;20483;-63
2022/07/28 06:58:45;;;;;;;6.75;1.23;;;17.40;63.20;;;;;;9171611;19;20021;-64
2022/07/28 07:01:53;;;;;;;2.60;0.82;;;17.50;63.00;;;;;;9177516;19;20492;-63
2022/07/28 07:04:58;;;;;;;2.85;1.00;;;17.60;62.80;;;;;;9179190;19;20033;-64
2022/07/28 07:08:03;;;;;;;4.47;1.00;;;17.70;62.70;;;;;;9181011;19;20003;-63
2022/07/28 07:11:08;;;;;;;6.72;0.88;;;17.90;62.50;;;;;;9173894;19;20017;-63
2022/07/28 07:14:13;;;;;;;4.47;1.00;;;18.00;62.30;;;;;;9180047;19;20071;-64
2022/07/28 07:17:21;;;;;;;6.40;1.35;;;18.10;62.20;;;;;;9179455;19;20030;-65
2022/07/28 07:20:27;;;;;;;5.75;0.98;;;18.30;62.00;;;;;;9176324;19;20018;-64
2022/07/28 07:23:32;;;;;;;8.35;1.02;;;18.40;61.80;;;;;;9178602;19;20490;-64
2022/07/28 07:26:36;;;;;;;4.00;1.15;;;18.40;61.60;;;;;;9178354;19;20027;-64
2022/07/28 07:29:41;;;;;;;1.63;0.80;;;18.50;61.40;;;;;;9179569;19;20022;-67
2022/07/28 07:32:49;;;;;;;3.25;1.15;;;18.60;61.20;;;;;;9179061;19;20015;-66
2022/07/28 07:35:54;;;;;;;4.45;0.73;;;18.70;61.20;;;;;;9184755;19;20026;-65
2022/07/28 07:38:59;;;;;;;4.82;0.73;;;18.70;61.00;;;;;;9187017;19;20025;-65
2022/07/28 07:42:04;;;;;;;2.35;0.93;;;18.80;60.80;;;;;;9185439;19;20018;-65
2022/07/28 07:45:10;;;;;;;3.47;1.65;;;18.90;60.60;;;;;;9186437;19;20015;-65
2022/07/28 07:48:18;;;;;;;3.58;0.70;;;18.90;60.50;;;;;;9186160;19;20015;-66
2022/07/28 07:51:23;;;;;;;3.28;0.55;;;19.00;60.20;;;;;;9187740;19;20015;-65
2022/07/28 07:54:28;;;;;;;3.47;0.73;;;19.20;60.20;;;;;;9188617;19;20011;-65
2022/07/28 07:57:33;;;;;;;4.40;1.08;;;19.30;60.00;;;;;;9185248;19;20431;-65
2022/07/28 08:00:38;;;;;;;10.52;1.05;;;19.50;59.90;;;;;;9185176;19;20014;-67
2022/07/28 08:03:45;;;;;;;7.13;0.93;;;19.60;59.70;;;;;;9185735;19;20078;-67
2022/07/28 08:06:54;;;;;;;2.47;0.65;;;19.70;59.60;;;;;;9186163;19;20022;-66
2022/07/28 08:10:00;;;;;;;3.38;0.55;;;19.90;59.40;;;;;;9183975;19;20074;-64
2022/07/28 08:13:06;;;;;;;3.90;0.82;;;20.10;59.20;;;;;;9186977;19;20022;-66
2022/07/28 08:16:11;;;;;;;1.63;0.70;;;20.30;58.90;;;;;;9187292;19;20502;-64
2022/07/28 08:19:18;;;;;;;2.13;0.60;;;20.40;58.60;;;;;;9186535;19;20025;-64
2022/07/28 08:22:26;;;;;;;5.07;0.80;;;20.60;58.30;;;;;;9186279;19;20045;-66
2022/07/28 08:25:31;;;;;;;1.95;0.80;;;20.70;58.20;;;;;;9185330;19;20015;-66
2022/07/28 08:28:36;;;;;;;4.13;0.80;;;20.80;58.00;;;;;;9185092;19;20014;-68
2022/07/28 08:31:41;;;;;;;5.57;0.80;;;20.90;57.80;;;;;;9182191;19;20018;-66
2022/07/28 08:34:48;;;;;;;1.48;0.68;;;21.00;57.50;;;;;;9184587;19;20074;-65
2022/07/28 08:38:00;;;;;;;2.08;0.73;;;21.10;57.20;;;;;;9184417;19;20021;-66
2022/07/28 08:41:06;;;;;;;2.45;0.98;;;21.20;57.10;;;;;;9186235;19;20022;-65
2022/07/28 08:44:15;;;;;;;2.10;0.85;;;21.20;56.80;;;;;;9184492;19;20018;-65
2022/07/28 08:47:22;;;;;;;4.35;1.15;;;21.20;56.60;;;;;;9182220;19;20061;-65
2022/07/28 08:50:31;;;;;;;2.00;0.60;;;21.30;56.40;;;;;;9184695;19;20019;-65
2022/07/28 08:53:38;;;;;;;3.55;0.47;;;21.30;56.20;;;;;;9183751;19;20011;-65
2022/07/28 08:56:46;;;;;;;3.97;0.80;;;21.30;56.10;;;;;;9185934;19;20006;-66
2022/07/28 08:59:53;;;;;;;4.90;0.93;;;21.30;56.00;;;;;;9185178;19;20018;-67
2022/07/28 09:02:59;;;;;;;1.83;0.85;;;21.40;55.90;;;;;;9184585;19;20369;-65
2022/07/28 09:06:07;;;;;;;2.63;0.90;;;21.50;55.90;;;;;;9180639;19;20015;-67
2022/07/28 09:09:12;;;;;;;4.22;0.65;;;21.50;55.60;;;;;;9181083;19;20488;-65
2022/07/28 09:12:17;;;;;;;2.22;0.80;;;21.60;55.60;;;;;;9185046;19;20014;-65
2022/07/28 09:15:22;;;;;;;3.42;0.40;;;21.80;55.50;;;;;;9185020;19;20399;-66
2022/07/28 09:18:27;;;;;;;2.65;0.98;;;21.90;55.30;;;;;;9184568;19;20357;-65
2022/07/28 09:21:36;;;;;;;3.78;0.65;;;22.10;55.00;;;;;;9183075;19;20368;-66
2022/07/28 09:24:43;;;;;;;1.63;0.70;;;22.20;54.60;;;;;;9182030;19;20011;-65
2022/07/28 09:27:48;;;;;;;1.80;0.60;;;22.30;54.50;;;;;;9182690;19;20025;-67
2022/07/28 09:30:53;;;;;;;3.28;0.60;;;22.50;54.50;;;;;;9184151;19;20007;-67
2022/07/28 09:34:04;;;;;;;3.42;0.60;;;22.60;54.20;;;;;;9184151;19;20082;-67
2022/07/28 09:37:19;;;;;;;1.60;0.68;;;22.70;53.90;;;;;;9182961;19;20017;-66
2022/07/28 09:40:31;;;;;;;6.45;1.08;;;22.80;53.30;;;;;;9181958;19;20855;-66
2022/07/28 09:43:37;;;;;;;1.17;0.80;;;22.90;53.50;;;;;;9182045;19;20029;-66
2022/07/28 09:46:42;;;;;;;4.90;1.00;;;23.00;53.40;;;;;;9181568;19;20015;-65
2022/07/28 09:49:47;;;;;;;2.20;0.80;;;23.20;53.30;;;;;;9183189;19;20113;-65
2022/07/28 09:52:55;;;;;;;2.78;0.60;;;23.30;53.20;;;;;;9184179;19;20014;-66
2022/07/28 09:56:01;;;;;;;3.55;0.90;;;23.40;52.90;;;;;;9181003;19;20776;-66
2022/07/28 09:59:07;;;;;;;3.22;0.85;;;23.40;52.80;;;;;;9182177;19;20025;-66
2022/07/28 10:02:13;;;;;;;2.92;0.95;;;23.50;52.80;;;;;;9180807;19;20025;-67
2022/07/28 10:05:18;;;;;;;2.20;0.80;;;23.60;52.60;;;;;;9181041;19;20074;-66
2022/07/28 10:08:41;;;;;;;3.58;1.35;;;23.80;52.50;;;;;;9180958;19;20006;-65
2022/07/28 10:11:46;;;;;;;3.83;0.60;;;23.90;52.00;;;;;;9176450;19;20044;-67
2022/07/28 10:14:53;;;;;;;5.15;0.52;;;24.10;52.30;;;;;;9182070;19;20014;-66
2022/07/28 10:17:58;;;;;;;3.65;0.63;;;24.20;52.00;;;;;;9179728;19;20021;-66
2022/07/28 10:21:05;;;;;;;1.50;0.50;;;24.30;51.80;;;;;;9180000;19;20029;-66
2022/07/28 10:24:23;;;;;;;4.20;0.65;;;24.40;51.60;;;;;;9180270;19;20479;-66
2022/07/28 10:27:29;;;;;;;1.65;0.80;;;24.50;51.20;;;;;;9181177;19;20011;-66
2022/07/28 10:30:40;;;;;;;4.38;0.80;;;24.60;51.20;;;;;;9180441;19;20415;-65
2022/07/28 10:33:50;;;;;;;3.15;0.75;;;24.70;51.70;;;;;;9179688;19;20502;-65
2022/07/28 10:36:57;;;;;;;2.42;0.50;;;24.70;51.00;;;;;;9181807;19;20436;-66
2022/07/28 10:40:08;;;;;;;3.13;0.80;;;24.80;50.90;;;;;;9180077;19;20054;-67
2022/07/28 10:43:15;;;;;;;3.78;0.65;;;24.90;50.70;;;;;;9180402;19;20414;-66
2022/07/28 10:46:20;;;;;;;3.42;1.00;;;25.00;50.70;;;;;;9176582;19;20011;-67
2022/07/28 10:49:27;;;;;;;5.85;1.20;;;25.00;50.60;;;;;;9178781;19;20014;-67
2022/07/28 10:52:37;;;;;;;2.05;0.70;;;25.10;50.40;;;;;;9180786;19;20014;-66
2022/07/28 10:56:04;;;;;;;3.47;0.95;;;25.10;50.10;;;;;;9179209;19;20038;-67
2022/07/28 10:59:41;;;;;;;4.22;1.00;;;25.10;49.80;;;;;;9181064;19;20563;-66
2022/07/28 11:02:49;;;;;;;2.28;0.80;;;25.10;49.70;;;;;;9180785;19;20349;-66
2022/07/28 11:05:54;;;;;;;3.60;0.80;;;25.20;49.90;;;;;;9178549;19;20469;-67
2022/07/28 11:09:01;;;;;;;6.53;1.05;;;25.20;49.80;;;;;;9177706;19;20014;-66
2022/07/28 11:12:11;;;;;;;2.60;0.73;;;25.20;49.70;;;;;;9178726;19;20022;-66
2022/07/28 11:15:28;;;;;;;3.90;0.85;;;25.20;49.50;;;;;;9179987;19;20021;-67
2022/07/28 11:19:06;;;;;;;4.82;0.75;;;25.20;49.20;;;;;;9179709;19;20022;-66
2022/07/28 11:22:32;;;;;;;3.67;0.88;;;25.30;49.20;;;;;;9178833;19;20027;-70
2022/07/28 11:25:38;;;;;;;5.45;0.77;;;25.30;49.30;;;;;;9176543;19;20030;-67
2022/07/28 11:29:14;;;;;;;10.93;0.90;;;25.40;49.30;;;;;;9179050;19;20019;-66
2022/07/28 11:32:21;;;;;;;1.95;0.63;;;25.50;48.80;;;;;;9178507;19;20023;-67
2022/07/28 11:35:33;;;;;;;3.70;0.80;;;25.50;49.00;;;;;;9176294;19;20048;-66
2022/07/28 11:38:38;;;;;;;3.10;0.70;;;25.60;48.90;;;;;;9179170;19;20011;-65
2022/07/28 11:41:43;;;;;;;4.95;0.98;;;25.70;48.80;;;;;;9177012;19;20017;-69
2022/07/28 11:44:50;;;;;;;2.20;0.70;;;25.80;48.60;;;;;;9178396;19;20022;-67
2022/07/28 11:48:20;;;;;;;1.52;0.68;;;25.90;48.40;;;;;;9179190;19;20029;-67
2022/07/28 11:51:25;;;;;;;4.90;0.90;;;25.90;48.10;;;;;;9178573;19;20364;-66
2022/07/28 11:54:31;;;;;;;3.53;0.82;;;26.00;48.40;;;;;;9177236;19;20014;-65
2022/07/28 11:57:42;;;;;;;3.58;0.70;;;26.10;48.20;;;;;;9178957;19;20015;-64
2022/07/28 12:00:47;;;;;;;2.50;0.70;;;26.10;47.90;;;;;;9177194;19;20029;-64
2022/07/28 12:03:57;;;;;;;4.50;0.80;;;26.20;47.90;;;;;;9178615;19;20033;-63
2022/07/28 12:07:04;;;;;;;5.45;0.70;;;26.30;47.70;;;;;;9175466;19;20019;-64
2022/07/28 12:10:25;;;;;;;2.25;0.60;;;26.40;47.60;;;;;;9172045;19;20015;-67
2022/07/28 12:13:59;;;;;;;1.42;0.50;;;26.40;47.20;;;;;;9178129;19;20024;-64
2022/07/28 12:17:04;;;;;;;;;;;26.50;47.20;;;;;;9179262;19;20018;-65
2022/07/28 12:20:16;;;;;;;2.03;0.60;;;26.50;47.90;;;;;;9178199;19;19915;-65
2022/07/28 12:23:36;;;;;;;3.20;0.70;;;26.50;47.40;;;;;;9182476;19;20025;-65
2022/07/28 12:26:49;;;;;;;3.03;0.75;;;26.50;47.00;;;;;;9181963;19;20778;-65
2022/07/28 12:29:58;;;;;;;3.35;0.73;;;26.60;47.20;;;;;;9185613;19;20023;-65
2022/07/28 12:33:18;;;;;;;4.00;0.85;;;26.60;47.00;;;;;;9183986;19;20029;-64
2022/07/28 12:36:25;;;;;;;4.18;0.70;;;26.60;46.60;;;;;;9184854;19;20014;-64
2022/07/28 12:39:32;;;;;;;2.15;0.73;;;26.60;46.70;;;;;;9187189;19;20014;-65
2022/07/28 12:42:38;;;;;;;3.70;0.60;;;26.60;46.80;;;;;;9184838;19;20364;-65
2022/07/28 12:45:47;;;;;;;3.15;0.73;;;26.70;46.70;;;;;;9182894;19;20043;-65
2022/07/28 12:48:54;;;;;;;3.97;0.70;;;26.70;46.30;;;;;;9183594;19;20018;-65
2022/07/28 12:52:16;;;;;;;3.40;0.70;;;26.70;46.20;;;;;;9184100;19;20026;-65
2022/07/28 12:55:25;;;;;;;6.53;0.88;;;26.70;45.90;;;;;;9185297;19;20022;-65
2022/07/28 12:58:30;;;;;;;4.13;1.02;;;26.60;45.90;;;;;;9185457;19;20022;-65
2022/07/28 13:01:50;;;;;;;3.22;0.90;;;26.60;45.90;;;;;;9184875;19;20019;-65
2022/07/28 13:04:55;;;;;;;2.15;0.73;;;26.50;45.60;;;;;;9181413;19;20018;-65
2022/07/28 13:08:04;;;;;;;2.42;0.57;;;26.50;45.90;;;;;;9185821;19;20021;-65
2022/07/28 13:11:11;;;;;;;7.28;1.52;;;26.50;45.70;;;;;;9179272;19;20074;-65
2022/07/28 13:14:42;;;;;;;5.28;0.98;;;26.50;45.70;;;;;;9184923;19;20010;-64
2022/07/28 13:17:53;;;;;;;3.42;0.70;;;26.40;45.60;;;;;;9184502;19;20147;-65
2022/07/28 13:20:58;;;;;;;2.40;0.70;;;26.40;45.50;;;;;;9184785;19;20019;-65
2022/07/28 13:24:08;;;;;;;2.70;1.05;;;26.40;45.50;;;;;;9184298;19;20487;-66
2022/07/28 13:27:13;;;;;;;3.28;0.55;;;26.50;45.50;;;;;;9181678;19;20014;-66
2022/07/28 13:30:19;;;;;;;4.22;0.90;;;26.50;45.50;;;;;;9178556;19;20756;-66
2022/07/28 13:33:25;;;;;;;3.10;0.90;;;26.50;45.40;;;;;;9174783;19;20022;-66
2022/07/28 13:36:32;;;;;;;1.02;0.75;;;26.50;45.30;;;;;;9175360;19;20018;-70
2022/07/28 13:39:39;;;;;;;4.07;1.05;;;26.40;45.30;;;;;;9175877;19;20019;-67
2022/07/28 13:42:44;;;;;;;4.97;0.80;;;26.40;45.20;;;;;;9173303;19;20408;-67
2022/07/28 13:46:00;;;;;;;3.42;0.95;;;26.40;45.20;;;;;;9171221;19;20151;-66
2022/07/28 13:49:05;;;;;;;4.43;0.73;;;26.40;45.20;;;;;;9172664;19;20483;-68
2022/07/28 13:52:15;;;;;;;3.00;0.82;;;26.40;45.10;;;;;;9172125;19;20029;-67
2022/07/28 13:55:39;;;;;;;2.83;0.73;;;26.40;45.10;;;;;;9170487;19;20029;-67
2022/07/28 13:58:44;;;;;;;3.70;0.80;;;26.40;45.00;;;;;;9171301;19;20466;-66
2022/07/28 14:01:50;;;;;;;2.80;0.80;;;26.30;44.90;;;;;;9172662;19;20637;-66
2022/07/28 14:04:55;;;;;;;2.95;1.10;;;26.30;44.90;;;;;;9174826;19;20075;-66
2022/07/28 14:08:00;;;;;;;2.95;1.00;;;26.30;44.80;;;;;;9177601;19;20018;-65
2022/07/28 14:11:08;;;;;;;1.83;0.77;;;26.20;44.70;;;;;;9172515;19;20491;-67
2022/07/28 14:14:13;;;;;;;1.63;0.50;;;26.20;44.70;;;;;;9175057;19;21436;-68
2022/07/28 14:17:21;;;;;;;4.43;0.65;;;26.20;44.80;;;;;;9176232;19;20019;-68
2022/07/28 14:20:46;;;;;;;3.92;0.82;;;26.20;44.70;;;;;;9179295;19;20015;-67
2022/07/28 14:23:51;;;;;;;3.17;0.88;;;26.10;44.70;;;;;;9177091;19;20034;-66
2022/07/28 14:26:59;;;;;;;2.28;0.85;;;26.10;44.70;;;;;;9168255;19;20018;-66
2022/07/28 14:30:05;;;;;;;1.10;0.60;;;26.00;44.60;;;;;;9166662;19;20018;-65
2022/07/28 14:33:10;;;;;;;3.60;0.75;;;26.00;44.60;;;;;;9171311;19;20107;-66
2022/07/28 14:36:16;;;;;;;6.75;0.70;;;26.00;44.70;;;;;;9170297;19;20026;-66
2022/07/28 14:39:21;;;;;;;4.20;1.23;;;25.90;44.60;;;;;;9167983;19;20026;-65
2022/07/28 14:42:28;;;;;;;1.48;0.82;;;25.80;44.60;;;;;;9164619;19;20894;-66
2022/07/28 14:45:34;;;;;;;2.95;0.93;;;25.80;44.60;;;;;;9163876;19;20655;-65
2022/07/28 14:48:59;;;;;;;2.55;0.82;;;25.80;44.80;;;;;;9165736;19;20101;-66
2022/07/28 14:52:05;;;;;;;4.30;0.75;;;25.80;44.80;;;;;;9164196;19;20022;-66
2022/07/28 14:55:11;;;;;;;4.57;0.90;;;25.80;44.70;;;;;;9171098;19;20018;-65
2022/07/28 14:58:19;;;;;;;3.00;0.95;;;25.80;44.60;;;;;;9171192;19;20024;-68
2022/07/28 15:01:24;;;;;;;2.30;0.57;;;25.70;44.40;;;;;;9167270;19;20022;-67
2022/07/28 15:04:29;;;;;;;4.63;1.10;;;25.70;44.50;;;;;;9164392;19;20022;-67
2022/07/28 15:07:34;;;;;;;3.55;0.88;;;25.70;44.50;;;;;;9165703;19;20094;-66
2022/07/28 15:10:39;;;;;;;4.63;0.60;;;25.60;44.50;;;;;;9170501;19;20924;-68
2022/07/28 15:13:47;;;;;;;1.88;0.75;;;25.60;44.60;;;;;;9174676;19;20006;-68
2022/07/28 15:16:52;;;;;;;2.03;0.73;;;25.60;44.50;;;;;;9174608;19;20668;-67
2022/07/28 15:19:57;;;;;;;2.17;0.77;;;25.60;44.50;;;;;;9176551;19;20018;-66
2022/07/28 15:23:04;;;;;;;2.75;0.60;;;25.60;44.40;;;;;;9171250;19;20014;-67
2022/07/28 15:26:08;;;;;;;2.38;0.80;;;25.60;44.40;;;;;;9173834;19;20018;-66
2022/07/28 15:29:18;;;;;;;8.27;0.88;;;25.50;44.40;;;;;;9172146;19;20030;-67
2022/07/28 15:32:25;;;;;;;7.10;0.88;;;25.50;44.30;;;;;;9165966;19;20090;-68
2022/07/28 15:35:32;;;;;;;6.85;0.93;;;25.50;44.40;;;;;;9168162;19;20015;-66
2022/07/28 15:38:57;;;;;;;3.03;0.90;;;25.50;44.30;;;;;;9168872;19;20085;-68
2022/07/28 15:42:03;;;;;;;2.90;1.13;;;25.50;44.40;;;;;;9170615;19;20052;-67
2022/07/28 15:45:12;;;;;;;1.98;0.50;;;25.60;44.30;;;;;;9173752;19;20018;-67
2022/07/28 15:48:17;;;;;;;1.85;0.77;;;25.50;44.10;;;;;;9172076;19;20015;-68
2022/07/28 15:51:22;;;;;;;4.72;0.70;;;25.60;44.40;;;;;;9164408;19;20014;-67
2022/07/28 15:54:29;;;;;;;1.45;0.57;;;25.60;44.40;;;;;;9166434;19;20010;-68
2022/07/28 15:57:35;;;;;;;0.82;0.52;;;25.60;44.20;;;;;;9178528;19;20396;-67
2022/07/28 16:00:44;;;;;;;4.15;1.15;;;25.60;44.20;;;;;;9181892;19;20082;-67
2022/07/28 16:03:50;;;;;;;5.05;1.30;;;25.60;44.20;;;;;;9179722;19;20395;-68
2022/07/28 16:10:12;;;;;;;1.58;0.80;;;25.50;44.10;;;;;;9177544;19;20484;-68
2022/07/28 16:13:17;;;;;;;2.75;0.70;;;25.50;44.10;;;;;;9180735;19;20412;-68
2022/07/28 16:16:44;;;;;;;4.37;0.70;;;25.40;44.10;;;;;;9178943;19;20541;-68
2022/07/28 16:19:49;;;;;;;1.48;0.95;;;25.40;44.10;;;;;;9179034;19;20011;-67
2022/07/28 16:22:55;;;;;;;8.77;0.95;;;25.40;44.10;;;;;;9181332;19;20014;-70
2022/07/28 16:26:00;;;;;;;6.10;0.90;;;25.40;44.10;;;;;;9177362;19;20027;-68